createdAt,value
2022-11-08T00:01:36.191Z,23.98
2022-11-08T00:04:10.657Z,23.61
2022-11-08T00:07:00.565Z,23.51
2022-11-08T00:09:52.214Z,23.73
2022-11-08T00:12:41.079Z,23.93
2022-11-08T00:15:14.339Z,23.84
2022-11-08T00:17:46.372Z,23.98
2022-11-08T00:20:19.164Z,24.13
2022-11-08T00:22:51.516Z,23.80
2022-11-08T00:25:26.205Z,23.85
2022-11-08T00:27:58.164Z,24.00
2022-11-08T00:30:31.083Z,24.03
2022-11-08T00:33:03.781Z,23.62
2022-11-08T00:35:36.654Z,23.84
2022-11-08T00:38:08.712Z,24.05
2022-11-08T00:40:42.943Z,24.05
2022-11-08T00:43:15.068Z,23.94
2022-11-08T00:45:47.960Z,23.72
2022-11-08T00:48:20.510Z,23.84
2022-11-08T00:50:53.724Z,24.14
2022-11-08T00:53:26.396Z,24.01
2022-11-08T00:56:05.306Z,24.42
2022-11-08T00:58:37.708Z,26.25
2022-11-08T01:01:14.355Z,26.54
2022-11-08T01:03:47.161Z,26.54
2022-11-08T01:06:22.592Z,26.54
2022-11-08T01:08:55.210Z,26.58
2022-11-08T01:11:29.893Z,26.55
2022-11-08T01:14:04.533Z,26.56
2022-11-08T01:16:38.366Z,26.56
2022-11-08T01:19:14.717Z,26.57
2022-11-08T01:21:47.241Z,26.43
2022-11-08T01:24:20.555Z,26.49
2022-11-08T01:26:54.550Z,26.51
2022-11-08T01:29:26.763Z,26.37
2022-11-08T01:31:59.813Z,26.52
2022-11-08T01:34:32.282Z,26.55
2022-11-08T01:37:04.636Z,26.58
2022-11-08T01:39:37.070Z,26.59
2022-11-08T01:42:11.279Z,26.62
2022-11-08T01:45:01.459Z,26.65
2022-11-08T01:47:33.470Z,26.65
2022-11-08T01:50:09.627Z,26.64
2022-11-08T01:52:45.211Z,26.43
2022-11-08T01:55:21.859Z,26.60
2022-11-08T01:57:59.993Z,26.60
2022-11-08T02:00:32.817Z,26.61
2022-11-08T02:03:07.781Z,26.46
2022-11-08T02:05:40.673Z,26.22
2022-11-08T02:08:20.174Z,26.07
2022-11-08T02:10:55.655Z,25.51
2022-11-08T02:13:31.821Z,25.37
2022-11-08T02:16:04.624Z,26.36
2022-11-08T02:18:36.855Z,26.57
2022-11-08T02:21:15.342Z,26.45
2022-11-08T02:23:51.489Z,26.52
2022-11-08T02:26:28.148Z,26.79
2022-11-08T02:29:00.323Z,26.89
2022-11-08T02:31:32.864Z,26.84
2022-11-08T02:34:05.111Z,26.52
2022-11-08T02:36:37.447Z,26.29
2022-11-08T02:39:11.611Z,25.98
2022-11-08T02:41:44.160Z,26.10
2022-11-08T02:44:16.631Z,26.23
2022-11-08T02:46:49.464Z,26.12
2022-11-08T02:49:21.519Z,26.31
2022-11-08T02:51:56.932Z,26.07
2022-11-08T02:54:30.762Z,26.49
2022-11-08T02:57:03.266Z,26.61
2022-11-08T02:59:35.986Z,26.13
2022-11-08T03:02:08.620Z,26.45
2022-11-08T03:04:42.451Z,26.50
2022-11-08T03:07:15.038Z,26.50
2022-11-08T03:09:49.688Z,26.59
2022-11-08T03:12:22.913Z,26.69
2022-11-08T03:14:55.596Z,26.59
2022-11-08T03:17:28.995Z,26.76
2022-11-08T03:20:01.632Z,26.87
2022-11-08T03:22:33.979Z,26.64
2022-11-08T03:25:07.880Z,26.72
2022-11-08T03:27:39.991Z,26.79
2022-11-08T03:30:13.017Z,26.72
2022-11-08T03:32:47.105Z,26.86
2022-11-08T03:35:19.514Z,26.81
2022-11-08T03:37:55.500Z,26.79
2022-11-08T03:40:29.959Z,26.78
2022-11-08T03:43:02.720Z,26.60
2022-11-08T03:45:35.111Z,26.60
2022-11-08T03:48:07.803Z,26.90
2022-11-08T03:50:40.217Z,26.72
2022-11-08T03:53:13.081Z,26.87
2022-11-08T03:55:48.411Z,26.80
2022-11-08T03:58:20.809Z,26.81
2022-11-08T04:00:53.869Z,26.83
2022-11-08T04:03:26.912Z,26.83
2022-11-08T04:05:59.371Z,26.73
2022-11-08T04:08:31.778Z,26.83
2022-11-08T04:11:19.042Z,26.53
2022-11-08T04:14:07.510Z,27.01
2022-11-08T04:16:40.453Z,27.11
2022-11-08T04:19:29.770Z,27.07
2022-11-08T04:22:02.978Z,27.00
2022-11-08T04:24:35.581Z,27.24
2022-11-08T04:27:09.833Z,27.26
2022-11-08T04:29:42.835Z,27.34
2022-11-08T04:32:15.130Z,27.40
2022-11-08T04:34:50.771Z,27.37
2022-11-08T04:37:23.307Z,27.31
2022-11-08T04:39:55.452Z,27.48
2022-11-08T04:42:30.213Z,27.23
2022-11-08T04:45:02.917Z,27.30
2022-11-08T04:47:39.424Z,27.51
2022-11-08T04:50:13.896Z,27.43
2022-11-08T04:52:47.172Z,27.67
2022-11-08T04:55:22.742Z,27.41
2022-11-08T04:58:02.015Z,27.52
2022-11-08T05:00:34.287Z,27.83
2022-11-08T05:03:07.204Z,27.83
2022-11-08T05:05:39.895Z,27.89
2022-11-08T05:08:14.577Z,27.85
2022-11-08T05:10:49.104Z,27.95
2022-11-08T05:13:24.660Z,27.95
2022-11-08T05:15:57.446Z,28.01
2022-11-08T05:18:30.267Z,28.28
2022-11-08T05:21:22.777Z,28.24
2022-11-08T05:23:55.413Z,28.30
2022-11-08T05:26:28.843Z,28.28
2022-11-08T05:29:02.782Z,28.26
2022-11-08T05:31:35.228Z,28.34
2022-11-08T05:34:08.893Z,28.49
2022-11-08T05:36:42.006Z,28.52
2022-11-08T05:39:14.763Z,28.45
2022-11-08T05:41:47.197Z,28.63
2022-11-08T05:44:31.273Z,28.55
2022-11-08T05:47:04.793Z,28.57
2022-11-08T05:49:42.295Z,28.61
2022-11-08T05:52:15.759Z,28.75
2022-11-08T05:54:49.082Z,28.58
2022-11-08T05:57:23.432Z,28.80
2022-11-08T06:00:09.171Z,29.17
2022-11-08T06:02:46.596Z,29.02
2022-11-08T06:05:19.107Z,28.92
2022-11-08T06:07:54.790Z,28.69
2022-11-08T06:10:46.008Z,29.15
2022-11-08T06:13:19.785Z,29.12
2022-11-08T06:15:57.297Z,29.07
2022-11-08T06:18:29.915Z,29.06
2022-11-08T06:21:03.724Z,29.15
2022-11-08T06:23:42.200Z,29.17
2022-11-08T06:26:17.588Z,29.00
2022-11-08T06:28:50.443Z,29.24
2022-11-08T06:31:25.603Z,29.14
2022-11-08T06:33:57.800Z,29.11
2022-11-08T06:36:34.834Z,29.46
2022-11-08T06:39:25.095Z,29.55
2022-11-08T06:41:57.668Z,29.65
2022-11-08T06:44:34.258Z,29.82
2022-11-08T06:47:17.395Z,29.76
2022-11-08T06:49:51.855Z,29.74
2022-11-08T06:52:26.615Z,29.86
2022-11-08T06:55:00.280Z,29.79
2022-11-08T06:57:32.379Z,29.72
2022-11-08T07:00:16.217Z,29.66
2022-11-08T07:02:57.901Z,29.78
2022-11-08T07:05:31.702Z,30.12
2022-11-08T07:08:12.603Z,29.95
2022-11-08T07:10:46.423Z,29.78
2022-11-08T07:13:21.613Z,29.82
2022-11-08T07:15:54.955Z,29.81
2022-11-08T07:18:31.839Z,29.89
2022-11-08T07:21:07.324Z,29.93
2022-11-08T07:23:40.226Z,29.75
2022-11-08T07:26:12.864Z,29.90
2022-11-08T07:28:46.532Z,30.03
2022-11-08T07:31:21.374Z,30.01
2022-11-08T07:34:09.560Z,29.95
2022-11-08T07:36:51.955Z,30.12
2022-11-08T07:39:55.022Z,30.16
2022-11-08T07:42:43.814Z,30.02
2022-11-08T07:45:28.929Z,30.04
2022-11-08T07:48:09.753Z,29.88
2022-11-08T07:50:48.699Z,29.95
2022-11-08T07:53:22.800Z,30.06
2022-11-08T07:55:56.802Z,30.17
2022-11-08T07:58:29.695Z,29.93
2022-11-08T08:01:05.745Z,30.05
2022-11-08T08:03:41.159Z,30.25
2022-11-08T08:06:15.558Z,30.21
2022-11-08T08:08:49.678Z,30.06
2022-11-08T08:11:23.401Z,30.13
2022-11-08T08:13:57.446Z,30.22
2022-11-08T08:16:33.031Z,30.28
2022-11-08T08:19:08.657Z,30.22
2022-11-08T08:21:43.599Z,30.19
2022-11-08T08:24:17.311Z,30.32
2022-11-08T08:26:54.817Z,30.34
2022-11-08T08:29:30.413Z,30.33
2022-11-08T08:32:07.135Z,30.33
2022-11-08T08:34:40.279Z,29.93
2022-11-08T08:37:18.909Z,30.08
2022-11-08T08:39:52.144Z,30.25
2022-11-08T08:42:24.223Z,30.37
2022-11-08T08:44:57.991Z,30.38
2022-11-08T08:47:32.592Z,30.34
2022-11-08T08:50:08.608Z,30.47
2022-11-08T08:52:43.483Z,30.45
2022-11-08T08:55:16.249Z,30.52
2022-11-08T08:57:53.391Z,30.51
2022-11-08T09:03:22.179Z,30.60
2022-11-08T09:05:54.552Z,30.57
2022-11-08T09:08:43.836Z,30.31
2022-11-08T09:11:30.790Z,30.39
2022-11-08T09:14:16.498Z,30.45
2022-11-08T09:16:51.187Z,30.42
2022-11-08T09:19:32.972Z,30.37
2022-11-08T09:22:48.185Z,30.41
2022-11-08T09:25:23.096Z,30.33
2022-11-08T09:28:18.214Z,30.39
2022-11-08T09:30:50.699Z,30.42
2022-11-08T09:36:06.903Z,30.41
2022-11-08T09:38:48.341Z,30.31
2022-11-08T09:42:19.382Z,30.38
2022-11-08T09:45:28.320Z,30.34
2022-11-08T09:48:05.430Z,30.36
2022-11-08T09:50:45.250Z,30.67
2022-11-08T09:53:22.408Z,30.72
2022-11-08T09:56:00.395Z,30.81
2022-11-08T09:58:40.961Z,30.89
2022-11-08T10:01:24.491Z,30.80
2022-11-08T10:04:07.288Z,30.73
2022-11-08T10:07:07.274Z,30.77
2022-11-08T10:09:57.140Z,30.84
2022-11-08T10:12:38.970Z,30.82
2022-11-08T10:15:25.301Z,30.82
2022-11-08T10:18:28.097Z,30.57
2022-11-08T10:21:09.536Z,30.67
2022-11-08T10:23:55.892Z,30.64
2022-11-08T10:29:40.648Z,30.67
2022-11-08T10:32:28.393Z,30.87
2022-11-08T10:35:52.019Z,30.60
2022-11-08T10:38:32.282Z,30.45
2022-11-08T10:41:20.497Z,30.53
2022-11-08T10:43:58.666Z,30.36
2022-11-08T10:46:48.735Z,30.39
2022-11-08T10:49:36.151Z,30.33
2022-11-08T10:52:28.560Z,30.30
2022-11-08T10:55:04.241Z,30.14
2022-11-08T10:57:46.646Z,30.13
2022-11-08T11:00:35.570Z,29.99
2022-11-08T11:03:32.105Z,29.99
2022-11-08T11:06:07.595Z,29.89
2022-11-08T11:08:55.764Z,29.86
2022-11-08T11:11:43.167Z,29.71
2022-11-08T11:14:22.534Z,29.85
2022-11-08T11:17:00.913Z,29.85
2022-11-08T11:19:36.797Z,29.87
2022-11-08T11:22:13.641Z,29.78
2022-11-08T11:24:56.363Z,29.65
2022-11-08T11:27:38.293Z,29.56
2022-11-08T11:30:32.461Z,29.50
2022-11-08T11:33:26.087Z,29.48
2022-11-08T11:36:02.768Z,29.45
2022-11-08T11:38:42.440Z,29.45
2022-11-08T11:41:21.500Z,29.51
2022-11-08T11:44:01.949Z,29.44
2022-11-08T11:46:42.792Z,29.35
2022-11-08T11:49:20.285Z,29.31
2022-11-08T11:51:57.300Z,29.26
2022-11-08T11:54:33.612Z,29.15
2022-11-08T11:57:20.614Z,29.04
2022-11-08T12:00:07.538Z,28.94
2022-11-08T12:03:08.488Z,28.99
2022-11-08T12:05:51.243Z,29.04
2022-11-08T12:08:35.046Z,28.97
2022-11-08T12:11:37.628Z,29.05
2022-11-08T12:14:27.512Z,29.03
2022-11-08T12:17:12.560Z,29.04
2022-11-08T12:19:56.416Z,29.01
2022-11-08T12:22:46.729Z,28.80
2022-11-08T12:25:27.556Z,28.96
2022-11-08T12:28:09.296Z,29.13
2022-11-08T12:30:54.358Z,29.01
2022-11-08T12:33:42.873Z,28.95
2022-11-08T12:36:36.514Z,28.64
2022-11-08T12:39:23.493Z,28.51
2022-11-08T12:42:06.905Z,28.46
2022-11-08T12:45:03.518Z,28.41
2022-11-08T12:47:43.420Z,28.38
2022-11-08T12:50:29.303Z,28.34
2022-11-08T12:53:23.362Z,28.34
2022-11-08T12:56:02.352Z,28.43
2022-11-08T12:58:41.623Z,28.34
2022-11-08T13:01:17.224Z,28.25
2022-11-08T13:04:28.979Z,28.14
2022-11-08T13:07:08.251Z,28.20
2022-11-08T13:09:56.271Z,28.15
2022-11-08T13:12:44.200Z,28.04
2022-11-08T13:15:22.862Z,28.01
2022-11-08T13:18:36.550Z,28.06
2022-11-08T13:21:39.676Z,28.10
2022-11-08T13:24:45.620Z,28.11
2022-11-08T13:27:37.812Z,28.22
2022-11-08T13:30:47.062Z,27.99
2022-11-08T13:33:30.571Z,27.76
2022-11-08T13:36:17.545Z,27.80
2022-11-08T13:39:06.364Z,28.03
2022-11-08T13:42:06.469Z,28.04
2022-11-08T13:45:01.600Z,28.16
2022-11-08T13:48:03.757Z,28.05
2022-11-08T13:51:43.191Z,28.10
2022-11-08T13:54:56.429Z,28.02
2022-11-08T13:58:00.133Z,28.06
2022-11-08T14:00:49.599Z,28.11
2022-11-08T14:03:41.011Z,28.16
2022-11-08T14:06:21.759Z,28.07
2022-11-08T14:09:07.053Z,27.96
2022-11-08T14:11:57.660Z,28.08
2022-11-08T14:14:54.872Z,27.99
2022-11-08T14:17:43.831Z,28.03
2022-11-08T14:20:27.553Z,28.23
2022-11-08T14:23:05.331Z,28.15
2022-11-08T14:25:40.086Z,28.35
2022-11-08T14:28:28.515Z,28.21
2022-11-08T14:31:09.895Z,28.06
2022-11-08T14:33:46.686Z,28.02
2022-11-08T14:36:22.112Z,28.27
2022-11-08T14:39:06.043Z,28.21
2022-11-08T14:41:39.395Z,28.12
2022-11-08T14:44:27.761Z,28.38
2022-11-08T14:47:09.587Z,28.16
2022-11-08T14:49:42.569Z,28.23
2022-11-08T14:52:18.795Z,28.02
